sensor_id;sensor_type;location;lat;lon;timestamp;pressure;altitude;pressure_sealevel;temperature;humidity
62103;BME280;48077;48.104;11.702;2023-05-20T00:01:58;95439.53;;;10.63;100.00
62103;BME280;48077;48.104;11.702;2023-05-20T00:07:41;95438.03;;;10.56;100.00
62103;BME280;48077;48.104;11.702;2023-05-20T00:10:04;95473.72;;;10.78;100.00
62103;BME280;48077;48.104;11.702;2023-05-20T00:12:28;95483.25;;;10.86;100.00
62103;BME280;48077;48.104;11.702;2023-05-20T00:14:51;95484.50;;;10.83;100.00
62103;BME280;48077;48.104;11.702;2023-05-20T00:17:17;95464.81;;;10.72;100.00
62103;BME280;48077;48.104;11.702;2023-05-20T00:19:40;95464.94;;;10.78;100.00
62103;BME280;48077;48.104;11.702;2023-05-20T00:22:04;95468.88;;;10.75;100.00
62103;BME280;48077;48.104;11.702;2023-05-20T00:24:28;95476.63;;;10.77;100.00
62103;BME280;48077;48.104;11.702;2023-05-20T00:26:51;95483.59;;;10.78;100.00
62103;BME280;48077;48.104;11.702;2023-05-20T00:29:14;95462.75;;;10.63;100.00
62103;BME280;48077;48.104;11.702;2023-05-20T00:31:38;95484.63;;;10.77;100.00
62103;BME280;48077;48.104;11.702;2023-05-20T00:34:01;95462.75;;;10.63;100.00
62103;BME280;48077;48.104;11.702;2023-05-20T00:36:27;95479.78;;;10.73;100.00
62103;BME280;48077;48.104;11.702;2023-05-20T00:38:50;95458.91;;;10.59;100.00
62103;BME280;48077;48.104;11.702;2023-05-20T00:41:13;95445.13;;;10.50;100.00
62103;BME280;48077;48.104;11.702;2023-05-20T00:43:37;95471.31;;;10.65;100.00
62103;BME280;48077;48.104;11.702;2023-05-20T00:46:00;95467.59;;;10.66;100.00
62103;BME280;48077;48.104;11.702;2023-05-20T00:48:23;95492.75;;;10.70;100.00
62103;BME280;48077;48.104;11.702;2023-05-20T00:50:48;95481.88;;;10.71;100.00
62103;BME280;48077;48.104;11.702;2023-05-20T00:53:13;95478.41;;;10.71;100.00
62103;BME280;48077;48.104;11.702;2023-05-20T00:55:36;95479.41;;;10.70;100.00
62103;BME280;48077;48.104;11.702;2023-05-20T00:58:00;95470.16;;;10.61;100.00
62103;BME280;48077;48.104;11.702;2023-05-20T01:00:23;95477.34;;;10.60;100.00
62103;BME280;48077;48.104;11.702;2023-05-20T01:02:47;95454.97;;;10.49;100.00
62103;BME280;48077;48.104;11.702;2023-05-20T01:05:11;95470.03;;;10.56;100.00
62103;BME280;48077;48.104;11.702;2023-05-20T01:07:34;95459.28;;;10.50;100.00
62103;BME280;48077;48.104;11.702;2023-05-20T01:09:58;95449.88;;;10.48;100.00
62103;BME280;48077;48.104;11.702;2023-05-20T01:12:26;95473.06;;;10.59;100.00
62103;BME280;48077;48.104;11.702;2023-05-20T01:14:56;95466.91;;;10.59;100.00
62103;BME280;48077;48.104;11.702;2023-05-20T01:17:22;95460.75;;;10.58;100.00
62103;BME280;48077;48.104;11.702;2023-05-20T01:19:49;95462.84;;;10.56;100.00
62103;BME280;48077;48.104;11.702;2023-05-20T01:22:13;95447.66;;;10.45;100.00
62103;BME280;48077;48.104;11.702;2023-05-20T01:24:41;95437.81;;;10.45;100.00
62103;BME280;48077;48.104;11.702;2023-05-20T01:27:05;95442.56;;;10.43;100.00
62103;BME280;48077;48.104;11.702;2023-05-20T01:29:32;95447.31;;;10.41;100.00
62103;BME280;48077;48.104;11.702;2023-05-20T01:31:56;95457.06;;;10.47;100.00
62103;BME280;48077;48.104;11.702;2023-05-20T01:34:21;95434.59;;;10.31;100.00
62103;BME280;48077;48.104;11.702;2023-05-20T01:36:46;95444.06;;;10.39;100.00
62103;BME280;48077;48.104;11.702;2023-05-20T01:39:09;95451.13;;;10.45;100.00
62103;BME280;48077;48.104;11.702;2023-05-20T01:41:34;95462.06;;;10.44;100.00
62103;BME280;48077;48.104;11.702;2023-05-20T01:44:00;95435.81;;;10.29;100.00
62103;BME280;48077;48.104;11.702;2023-05-20T01:46:24;95442.91;;;10.35;100.00
62103;BME280;48077;48.104;11.702;2023-05-20T01:48:47;95454.06;;;10.44;100.00
62103;BME280;48077;48.104;11.702;2023-05-20T01:51:10;95453.72;;;10.40;100.00
62103;BME280;48077;48.104;11.702;2023-05-20T01:53:34;95444.91;;;10.40;100.00
62103;BME280;48077;48.104;11.702;2023-05-20T01:55:57;95438.84;;;10.32;100.00
62103;BME280;48077;48.104;11.702;2023-05-20T01:58:21;95432.16;;;10.30;100.00
62103;BME280;48077;48.104;11.702;2023-05-20T02:00:44;95442.09;;;10.35;100.00
62103;BME280;48077;48.104;11.702;2023-05-20T02:03:07;95424.25;;;10.35;100.00
62103;BME280;48077;48.104;11.702;2023-05-20T02:05:31;95421.31;;;10.25;100.00
62103;BME280;48077;48.104;11.702;2023-05-20T02:07:54;95423.75;;;10.26;100.00
62103;BME280;48077;48.104;11.702;2023-05-20T02:10:18;95419.22;;;10.27;100.00
62103;BME280;48077;48.104;11.702;2023-05-20T02:12:41;95422.41;;;10.36;100.00
62103;BME280;48077;48.104;11.702;2023-05-20T02:15:05;95437.94;;;10.39;100.00
62103;BME280;48077;48.104;11.702;2023-05-20T02:17:29;95436.78;;;10.35;100.00
62103;BME280;48077;48.104;11.702;2023-05-20T02:19:53;95428.88;;;10.28;100.00
62103;BME280;48077;48.104;11.702;2023-05-20T02:22:16;95417.97;;;10.18;100.00
62103;BME280;48077;48.104;11.702;2023-05-20T02:24:39;95435.63;;;10.30;100.00
62103;BME280;48077;48.104;11.702;2023-05-20T02:27:03;95405.47;;;10.06;100.00
62103;BME280;48077;48.104;11.702;2023-05-20T02:29:28;95432.94;;;10.30;100.00
62103;BME280;48077;48.104;11.702;2023-05-20T02:31:51;95445.34;;;10.37;100.00
62103;BME280;48077;48.104;11.702;2023-05-20T02:34:16;95423.66;;;10.21;100.00
62103;BME280;48077;48.104;11.702;2023-05-20T02:36:40;95444.06;;;10.39;100.00
62103;BME280;48077;48.104;11.702;2023-05-20T02:39:06;95443.63;;;10.42;100.00
62103;BME280;48077;48.104;11.702;2023-05-20T02:41:29;95424.34;;;10.28;100.00
62103;BME280;48077;48.104;11.702;2023-05-20T02:43:52;95437.94;;;10.39;100.00
62103;BME280;48077;48.104;11.702;2023-05-20T02:46:19;95421.25;;;10.31;100.00
62103;BME280;48077;48.104;11.702;2023-05-20T02:48:42;95430.06;;;10.44;100.00
62103;BME280;48077;48.104;11.702;2023-05-20T02:51:05;95415.94;;;10.31;100.00
62103;BME280;48077;48.104;11.702;2023-05-20T02:53:29;95404.31;;;10.26;100.00
62103;BME280;48077;48.104;11.702;2023-05-20T02:55:52;95419.16;;;10.33;100.00
62103;BME280;48077;48.104;11.702;2023-05-20T02:58:15;95432.38;;;10.40;100.00
62103;BME280;48077;48.104;11.702;2023-05-20T03:00:39;95439.31;;;10.41;100.00
62103;BME280;48077;48.104;11.702;2023-05-20T03:03:02;95425.88;;;10.36;100.00
62103;BME280;48077;48.104;11.702;2023-05-20T03:05:26;95439.22;;;10.36;100.00
62103;BME280;48077;48.104;11.702;2023-05-20T03:07:49;95422.47;;;10.29;100.00
62103;BME280;48077;48.104;11.702;2023-05-20T03:10:13;95427.97;;;10.34;100.00
62103;BME280;48077;48.104;11.702;2023-05-20T03:12:37;95445.22;;;10.43;100.00
62103;BME280;48077;48.104;11.702;2023-05-20T03:15:00;95438.88;;;10.44;100.00
62103;BME280;48077;48.104;11.702;2023-05-20T03:17:23;95438.06;;;10.44;100.00
62103;BME280;48077;48.104;11.702;2023-05-20T03:19:47;95429.34;;;10.37;100.00
62103;BME280;48077;48.104;11.702;2023-05-20T03:22:10;95438.28;;;10.42;100.00
62103;BME280;48077;48.104;11.702;2023-05-20T03:24:34;95434.34;;;10.45;100.00
62103;BME280;48077;48.104;11.702;2023-05-20T03:26:57;95435.16;;;10.45;100.00
62103;BME280;48077;48.104;11.702;2023-05-20T03:29:22;95409.75;;;10.31;100.00
62103;BME280;48077;48.104;11.702;2023-05-20T03:31:48;95400.56;;;10.27;100.00
62103;BME280;48077;48.104;11.702;2023-05-20T03:34:12;95427.16;;;10.45;100.00
62103;BME280;48077;48.104;11.702;2023-05-20T03:36:35;95413.00;;;10.33;100.00
62103;BME280;48077;48.104;11.702;2023-05-20T03:38:58;95402.34;;;10.21;100.00
62103;BME280;48077;48.104;11.702;2023-05-20T03:41:22;95429.94;;;10.39;100.00
62103;BME280;48077;48.104;11.702;2023-05-20T03:43:48;95419.41;;;10.32;100.00
62103;BME280;48077;48.104;11.702;2023-05-20T03:46:11;95429.94;;;10.39;100.00
62103;BME280;48077;48.104;11.702;2023-05-20T03:48:37;95438.38;;;10.47;100.00
62103;BME280;48077;48.104;11.702;2023-05-20T03:51:00;95444.66;;;10.41;100.00
62103;BME280;48077;48.104;11.702;2023-05-20T03:53:24;95388.91;;;10.04;100.00
62103;BME280;48077;48.104;11.702;2023-05-20T03:55:48;95449.31;;;10.46;100.00
62103;BME280;48077;48.104;11.702;2023-05-20T03:58:11;95431.44;;;10.35;100.00
62103;BME280;48077;48.104;11.702;2023-05-20T04:00:38;95435.75;;;10.36;100.00
62103;BME280;48077;48.104;11.702;2023-05-20T04:03:01;95436.88;;;10.28;100.00
62103;BME280;48077;48.104;11.702;2023-05-20T04:05:25;95420.06;;;10.27;100.00
62103;BME280;48077;48.104;11.702;2023-05-20T04:07:49;95433.41;;;10.27;100.00
62103;BME280;48077;48.104;11.702;2023-05-20T04:10:12;95431.97;;;10.25;100.00
62103;BME280;48077;48.104;11.702;2023-05-20T04:12:35;95433.25;;;10.22;100.00
62103;BME280;48077;48.104;11.702;2023-05-20T04:15:00;95434.59;;;10.31;100.00
62103;BME280;48077;48.104;11.702;2023-05-20T04:17:23;95427.72;;;10.24;100.00
62103;BME280;48077;48.104;11.702;2023-05-20T04:19:47;95420.75;;;10.11;100.00
62103;BME280;48077;48.104;11.702;2023-05-20T04:22:10;95441.47;;;10.21;100.00
62103;BME280;48077;48.104;11.702;2023-05-20T04:24:33;95425.97;;;10.18;100.00
62103;BME280;48077;48.104;11.702;2023-05-20T04:26:57;95418.69;;;10.13;100.00
62103;BME280;48077;48.104;11.702;2023-05-20T04:29:20;95429.31;;;10.25;100.00
62103;BME280;48077;48.104;11.702;2023-05-20T04:31:45;95438.47;;;10.29;100.00
62103;BME280;48077;48.104;11.702;2023-05-20T04:34:08;95437.47;;;10.30;100.00
62103;BME280;48077;48.104;11.702;2023-05-20T04:36:32;95427.00;;;10.28;100.00
62103;BME280;48077;48.104;11.702;2023-05-20T04:38:56;95422.28;;;10.30;100.00
62103;BME280;48077;48.104;11.702;2023-05-20T04:41:20;95419.63;;;10.30;100.00
62103;BME280;48077;48.104;11.702;2023-05-20T04:43:43;95419.41;;;10.32;100.00
62103;BME280;48077;48.104;11.702;2023-05-20T04:46:08;95414.16;;;10.25;100.00
62103;BME280;48077;48.104;11.702;2023-05-20T04:48:32;95425.53;;;10.32;100.00
62103;BME280;48077;48.104;11.702;2023-05-20T04:50:55;95413.22;;;10.20;100.00
62103;BME280;48077;48.104;11.702;2023-05-20T04:53:19;95416.81;;;10.25;100.00
62103;BME280;48077;48.104;11.702;2023-05-20T04:55:47;95424.94;;;10.30;100.00
62103;BME280;48077;48.104;11.702;2023-05-20T04:58:11;95430.88;;;10.32;100.00
62103;BME280;48077;48.104;11.702;2023-05-20T05:00:37;95426.00;;;10.29;100.00
62103;BME280;48077;48.104;11.702;2023-05-20T05:03:01;95430.16;;;10.37;100.00
62103;BME280;48077;48.104;11.702;2023-05-20T05:05:24;95428.78;;;10.35;100.00
62103;BME280;48077;48.104;11.702;2023-05-20T05:07:48;95431.00;;;10.38;100.00
62103;BME280;48077;48.104;11.702;2023-05-20T05:10:11;95435.00;;;10.52;100.00
62103;BME280;48077;48.104;11.702;2023-05-20T05:12:35;95418.47;;;10.38;100.00
62103;BME280;48077;48.104;11.702;2023-05-20T05:14:58;95416.16;;;10.42;100.00
62103;BME280;48077;48.104;11.702;2023-05-20T05:17:22;95409.31;;;10.34;100.00
62103;BME280;48077;48.104;11.702;2023-05-20T05:19:45;95426.91;;;10.47;100.00
62103;BME280;48077;48.104;11.702;2023-05-20T05:22:08;95416.25;;;10.47;100.00
62103;BME280;48077;48.104;11.702;2023-05-20T05:24:32;95426.34;;;10.57;100.00
62103;BME280;48077;48.104;11.702;2023-05-20T05:26:55;95417.28;;;10.58;100.00
62103;BME280;48077;48.104;11.702;2023-05-20T05:29:18;95401.97;;;10.53;100.00
62103;BME280;48077;48.104;11.702;2023-05-20T05:31:42;95416.22;;;10.70;100.00
62103;BME280;48077;48.104;11.702;2023-05-20T05:34:05;95396.06;;;10.63;100.00
62103;BME280;48077;48.104;11.702;2023-05-20T05:36:32;95410.28;;;10.68;100.00
62103;BME280;48077;48.104;11.702;2023-05-20T05:38:55;95398.97;;;10.61;100.00
62103;BME280;48077;48.104;11.702;2023-05-20T05:41:21;95405.22;;;10.67;100.00
62103;BME280;48077;48.104;11.702;2023-05-20T05:43:44;95412.75;;;10.70;100.00
62103;BME280;48077;48.104;11.702;2023-05-20T05:46:08;95420.72;;;10.82;100.00
62103;BME280;48077;48.104;11.702;2023-05-20T05:48:31;95432.19;;;10.82;100.00
62103;BME280;48077;48.104;11.702;2023-05-20T05:50:55;95409.25;;;10.69;100.00
62103;BME280;48077;48.104;11.702;2023-05-20T05:53:18;95406.47;;;10.64;100.00
62103;BME280;48077;48.104;11.702;2023-05-20T05:55:42;95426.78;;;10.77;100.00
62103;BME280;48077;48.104;11.702;2023-05-20T05:58:05;95408.56;;;10.62;100.00
62103;BME280;48077;48.104;11.702;2023-05-20T06:00:29;95424.69;;;10.79;100.00
62103;BME280;48077;48.104;11.702;2023-05-20T06:02:52;95422.34;;;10.83;100.00
62103;BME280;48077;48.104;11.702;2023-05-20T06:05:15;95404.28;;;10.73;100.00
62103;BME280;48077;48.104;11.702;2023-05-20T06:07:39;95432.50;;;10.98;100.00
62103;BME280;48077;48.104;11.702;2023-05-20T06:10:02;95419.66;;;10.94;100.00
62103;BME280;48077;48.104;11.702;2023-05-20T06:12:26;95423.75;;;11.14;100.00
62103;BME280;48077;48.104;11.702;2023-05-20T06:14:49;95433.13;;;11.17;100.00
62103;BME280;48077;48.104;11.702;2023-05-20T06:17:13;95421.91;;;11.14;100.00
62103;BME280;48077;48.104;11.702;2023-05-20T06:19:36;95416.88;;;11.18;100.00
62103;BME280;48077;48.104;11.702;2023-05-20T06:21:59;95418.53;;;11.19;100.00
62103;BME280;48077;48.104;11.702;2023-05-20T06:24:23;95428.25;;;11.25;100.00
62103;BME280;48077;48.104;11.702;2023-05-20T06:26:46;95428.44;;;11.36;100.00
62103;BME280;48077;48.104;11.702;2023-05-20T06:29:11;95414.84;;;11.37;100.00
62103;BME280;48077;48.104;11.702;2023-05-20T06:31:35;95417.13;;;11.45;100.00
62103;BME280;48077;48.104;11.702;2023-05-20T06:33:58;95421.56;;;11.40;100.00
62103;BME280;48077;48.104;11.702;2023-05-20T06:36:21;95405.94;;;11.31;100.00
62103;BME280;48077;48.104;11.702;2023-05-20T06:38:45;95405.38;;;11.29;100.00
62103;BME280;48077;48.104;11.702;2023-05-20T06:41:10;95422.28;;;11.35;100.00
62103;BME280;48077;48.104;11.702;2023-05-20T06:43:34;95406.75;;;11.32;100.00
62103;BME280;48077;48.104;11.702;2023-05-20T06:45:57;95421.81;;;11.38;100.00
62103;BME280;48077;48.104;11.702;2023-05-20T06:48:21;95429.13;;;11.31;100.00
62103;BME280;48077;48.104;11.702;2023-05-20T06:50:44;95418.53;;;11.19;100.00
62103;BME280;48077;48.104;11.702;2023-05-20T06:53:07;95424.13;;;11.34;100.00
62103;BME280;48077;48.104;11.702;2023-05-20T06:55:31;95422.84;;;11.37;100.00
62103;BME280;48077;48.104;11.702;2023-05-20T06:57:54;95389.25;;;11.24;100.00
62103;BME280;48077;48.104;11.702;2023-05-20T07:00:18;95399.91;;;11.53;100.00
62103;BME280;48077;48.104;11.702;2023-05-20T07:02:41;95407.94;;;11.70;100.00
62103;BME280;48077;48.104;11.702;2023-05-20T07:05:06;95416.38;;;11.95;100.00
62103;BME280;48077;48.104;11.702;2023-05-20T07:07:29;95395.91;;;12.01;100.00
62103;BME280;48077;48.104;11.702;2023-05-20T07:09:53;95396.41;;;12.15;100.00
62103;BME280;48077;48.104;11.702;2023-05-20T07:12:19;95407.16;;;12.20;100.00
62103;BME280;48077;48.104;11.702;2023-05-20T07:14:43;95412.75;;;12.35;100.00
62103;BME280;48077;48.104;11.702;2023-05-20T07:17:06;95418.00;;;12.30;100.00
62103;BME280;48077;48.104;11.702;2023-05-20T07:19:29;95401.06;;;12.25;100.00
62103;BME280;48077;48.104;11.702;2023-05-20T07:21:53;95406.22;;;12.48;100.00
62103;BME280;48077;48.104;11.702;2023-05-20T07:24:17;95405.41;;;12.48;100.00
62103;BME280;48077;48.104;11.702;2023-05-20T07:26:40;95418.13;;;12.58;100.00
62103;BME280;48077;48.104;11.702;2023-05-20T07:29:04;95393.34;;;12.45;100.00
62103;BME280;48077;48.104;11.702;2023-05-20T07:31:27;95376.44;;;12.40;100.00
62103;BME280;48077;48.104;11.702;2023-05-20T07:33:51;95400.88;;;12.70;100.00
62103;BME280;48077;48.104;11.702;2023-05-20T07:36:14;95381.88;;;12.67;100.00
62103;BME280;48077;48.104;11.702;2023-05-20T07:38:38;95398.03;;;12.99;100.00
62103;BME280;48077;48.104;11.702;2023-05-20T07:41:01;95382.34;;;13.08;100.00
62103;BME280;48077;48.104;11.702;2023-05-20T07:43:27;95391.50;;;13.34;100.00
62103;BME280;48077;48.104;11.702;2023-05-20T07:45:50;95380.72;;;13.29;99.86
62103;BME280;48077;48.104;11.702;2023-05-20T07:48:14;95389.22;;;13.26;100.00
62103;BME280;48077;48.104;11.702;2023-05-20T07:50:38;95390.69;;;13.33;99.84
62103;BME280;48077;48.104;11.702;2023-05-20T07:53:01;95375.97;;;13.36;99.51
62103;BME280;48077;48.104;11.702;2023-05-20T07:55:25;95387.38;;;13.53;97.52
62103;BME280;48077;48.104;11.702;2023-05-20T07:57:48;95390.88;;;13.54;98.09
62103;BME280;48077;48.104;11.702;2023-05-20T08:00:12;95387.16;;;13.60;98.15
62103;BME280;48077;48.104;11.702;2023-05-20T08:02:35;95387.09;;;13.82;97.40
62103;BME280;48077;48.104;11.702;2023-05-20T08:04:58;95362.69;;;13.79;95.80
62103;BME280;48077;48.104;11.702;2023-05-20T08:07:22;95367.56;;;13.87;96.66
62103;BME280;48077;48.104;11.702;2023-05-20T08:09:45;95352.03;;;13.89;96.25
62103;BME280;48077;48.104;11.702;2023-05-20T08:12:08;95363.16;;;14.03;95.92
62103;BME280;48077;48.104;11.702;2023-05-20T08:14:32;95359.44;;;14.09;95.29
62103;BME280;48077;48.104;11.702;2023-05-20T08:16:55;95358.41;;;14.20;93.64
62103;BME280;48077;48.104;11.702;2023-05-20T08:19:19;95374.16;;;14.44;91.86
62103;BME280;48077;48.104;11.702;2023-05-20T08:21:42;95365.81;;;14.45;90.66
62103;BME280;48077;48.104;11.702;2023-05-20T08:24:06;95356.72;;;14.46;91.08
62103;BME280;48077;48.104;11.702;2023-05-20T08:26:29;95340.38;;;14.53;90.05
62103;BME280;48077;48.104;11.702;2023-05-20T08:28:52;95360.84;;;14.64;91.59
62103;BME280;48077;48.104;11.702;2023-05-20T08:31:17;95358.16;;;14.64;91.95
62103;BME280;48077;48.104;11.702;2023-05-20T08:33:40;95367.84;;;14.70;90.66
62103;BME280;48077;48.104;11.702;2023-05-20T08:36:04;95355.25;;;14.76;89.00
62103;BME280;48077;48.104;11.702;2023-05-20T08:38:28;95361.78;;;14.90;89.25
62103;BME280;48077;48.104;11.702;2023-05-20T08:40:57;95357.78;;;15.03;87.62
62103;BME280;48077;48.104;11.702;2023-05-20T08:43:22;95351.06;;;15.01;89.32
62103;BME280;48077;48.104;11.702;2023-05-20T08:45:45;95347.06;;;15.08;89.33
62103;BME280;48077;48.104;11.702;2023-05-20T08:48:09;95353.28;;;15.29;88.68
62103;BME280;48077;48.104;11.702;2023-05-20T08:50:32;95346.84;;;15.41;87.53
62103;BME280;48077;48.104;11.702;2023-05-20T08:52:56;95335.03;;;15.52;86.49
62103;BME280;48077;48.104;11.702;2023-05-20T08:55:31;95348.78;;;15.76;85.46
62103;BME280;48077;48.104;11.702;2023-05-20T08:57:59;95342.88;;;15.89;83.59
62103;BME280;48077;48.104;11.702;2023-05-20T09:00:23;95338.56;;;15.98;82.44
62103;BME280;48077;48.104;11.702;2023-05-20T09:02:50;95352.53;;;16.21;80.19
62103;BME280;48077;48.104;11.702;2023-05-20T09:05:14;95357.06;;;16.41;76.02
62103;BME280;48077;48.104;11.702;2023-05-20T09:07:37;95338.53;;;16.39;77.39
62103;BME280;48077;48.104;11.702;2023-05-20T09:10:01;95351.91;;;16.65;73.64
62103;BME280;48077;48.104;11.702;2023-05-20T09:12:25;95354.00;;;16.78;73.88
62103;BME280;48077;48.104;11.702;2023-05-20T09:14:48;95348.34;;;16.75;71.83
62103;BME280;48077;48.104;11.702;2023-05-20T09:17:12;95343.81;;;16.65;73.49
62103;BME280;48077;48.104;11.702;2023-05-20T09:19:35;95348.34;;;16.85;68.97
62103;BME280;48077;48.104;11.702;2023-05-20T09:21:59;95334.66;;;16.71;70.59
62103;BME280;48077;48.104;11.702;2023-05-20T09:24:24;95330.06;;;16.82;69.71
62103;BME280;48077;48.104;11.702;2023-05-20T09:26:47;95345.50;;;17.16;67.41
62103;BME280;48077;48.104;11.702;2023-05-20T09:29:11;95342.03;;;17.10;68.50
62103;BME280;48077;48.104;11.702;2023-05-20T09:31:34;95342.28;;;17.14;69.45
62103;BME280;48077;48.104;11.702;2023-05-20T09:34:00;95350.78;;;17.36;70.01
62103;BME280;48077;48.104;11.702;2023-05-20T09:36:27;95331.59;;;17.48;67.46
62103;BME280;48077;48.104;11.702;2023-05-20T09:38:51;95344.09;;;17.68;65.32
62103;BME280;48077;48.104;11.702;2023-05-20T09:41:15;95349.13;;;17.80;68.48
62103;BME280;48077;48.104;11.702;2023-05-20T09:43:39;95337.94;;;18.02;66.10
62103;BME280;48077;48.104;11.702;2023-05-20T09:46:03;95343.97;;;18.23;64.31
62103;BME280;48077;48.104;11.702;2023-05-20T09:48:28;95324.13;;;18.33;63.96
62103;BME280;48077;48.104;11.702;2023-05-20T09:50:53;95327.13;;;18.55;63.98
62103;BME280;48077;48.104;11.702;2023-05-20T09:53:19;95329.25;;;18.88;63.78
62103;BME280;48077;48.104;11.702;2023-05-20T09:55:44;95312.53;;;18.86;64.99
62103;BME280;48077;48.104;11.702;2023-05-20T09:58:08;95321.00;;;18.98;63.61
62103;BME280;48077;48.104;11.702;2023-05-20T10:00:33;95318.44;;;18.88;61.82
62103;BME280;48077;48.104;11.702;2023-05-20T10:02:58;95328.25;;;18.78;62.63
62103;BME280;48077;48.104;11.702;2023-05-20T10:05:24;95323.56;;;18.60;64.39
62103;BME280;48077;48.104;11.702;2023-05-20T10:19:32;95316.69;;;19.16;63.44
62103;BME280;48077;48.104;11.702;2023-05-20T10:22:07;95319.63;;;19.38;63.59
62103;BME280;48077;48.104;11.702;2023-05-20T10:24:35;95313.78;;;19.69;60.89
62103;BME280;48077;48.104;11.702;2023-05-20T10:27:02;95294.03;;;19.88;58.58
62103;BME280;48077;48.104;11.702;2023-05-20T10:29:25;95308.59;;;20.06;58.27
62103;BME280;48077;48.104;11.702;2023-05-20T10:31:50;95314.66;;;20.30;57.36
62103;BME280;48077;48.104;11.702;2023-05-20T10:34:15;95306.13;;;20.37;56.02
62103;BME280;48077;48.104;11.702;2023-05-20T10:37:05;95310.97;;;20.54;56.84
62103;BME280;48077;48.104;11.702;2023-05-20T10:39:29;95303.69;;;20.68;53.59
62103;BME280;48077;48.104;11.702;2023-05-20T10:41:52;95289.28;;;20.54;54.15
62103;BME280;48077;48.104;11.702;2023-05-20T10:44:16;95291.69;;;20.41;54.19
62103;BME280;48077;48.104;11.702;2023-05-20T10:46:39;95291.28;;;20.20;54.92
62103;BME280;48077;48.104;11.702;2023-05-20T10:49:03;95287.66;;;20.11;55.63
62103;BME280;48077;48.104;11.702;2023-05-20T10:51:27;95282.88;;;19.89;57.07
62103;BME280;48077;48.104;11.702;2023-05-20T10:53:52;95297.66;;;19.97;57.23
62103;BME280;48077;48.104;11.702;2023-05-20T10:56:18;95292.78;;;20.27;56.21
62103;BME280;48077;48.104;11.702;2023-05-20T10:58:41;95266.31;;;20.37;55.50
62103;BME280;48077;48.104;11.702;2023-05-20T11:01:05;95289.84;;;20.84;56.57
62103;BME280;48077;48.104;11.702;2023-05-20T11:03:29;95278.81;;;21.16;56.07
62103;BME280;48077;48.104;11.702;2023-05-20T11:05:53;95281.00;;;21.42;55.30
62103;BME280;48077;48.104;11.702;2023-05-20T11:08:16;95275.91;;;21.63;52.36
62103;BME280;48077;48.104;11.702;2023-05-20T11:10:41;95250.53;;;21.68;52.03
62103;BME280;48077;48.104;11.702;2023-05-20T11:13:04;95264.09;;;21.90;49.58
62103;BME280;48077;48.104;11.702;2023-05-20T11:15:30;95258.28;;;21.83;51.97
62103;BME280;48077;48.104;11.702;2023-05-20T11:18:01;95251.63;;;21.89;51.73
62103;BME280;48077;48.104;11.702;2023-05-20T11:20:25;95260.97;;;22.06;51.21
62103;BME280;48077;48.104;11.702;2023-05-20T11:22:50;95264.47;;;22.29;50.13
62103;BME280;48077;48.104;11.702;2023-05-20T11:25:15;95245.00;;;22.35;47.39
62103;BME280;48077;48.104;11.702;2023-05-20T11:27:38;95259.06;;;22.77;47.68
62103;BME280;48077;48.104;11.702;2023-05-20T11:30:02;95254.06;;;22.71;48.26
62103;BME280;48077;48.104;11.702;2023-05-20T11:32:26;95223.53;;;22.65;48.66
62103;BME280;48077;48.104;11.702;2023-05-20T11:34:50;95250.63;;;22.96;46.83
62103;BME280;48077;48.104;11.702;2023-05-20T11:37:14;95236.38;;;22.82;43.56
62103;BME280;48077;48.104;11.702;2023-05-20T11:39:38;95248.44;;;23.07;47.21
62103;BME280;48077;48.104;11.702;2023-05-20T11:42:02;95247.50;;;23.47;44.77
62103;BME280;48077;48.104;11.702;2023-05-20T11:44:25;95227.00;;;23.40;46.39
62103;BME280;48077;48.104;11.702;2023-05-20T11:46:48;95209.06;;;23.39;46.10
62103;BME280;48077;48.104;11.702;2023-05-20T11:49:12;95222.06;;;23.34;45.47
62103;BME280;48077;48.104;11.702;2023-05-20T11:51:37;95235.66;;;23.34;47.38
62103;BME280;48077;48.104;11.702;2023-05-20T11:54:02;95208.59;;;23.29;48.35
62103;BME280;48077;48.104;11.702;2023-05-20T11:56:30;95195.13;;;23.50;46.82
62103;BME280;48077;48.104;11.702;2023-05-20T11:58:56;95203.88;;;23.99;45.33
62103;BME280;48077;48.104;11.702;2023-05-20T12:01:23;95210.41;;;24.15;44.52
62103;BME280;48077;48.104;11.702;2023-05-20T12:03:46;95201.88;;;24.26;44.28
62103;BME280;48077;48.104;11.702;2023-05-20T12:06:10;95198.81;;;24.27;43.94
62103;BME280;48077;48.104;11.702;2023-05-20T12:08:34;95207.84;;;24.49;43.37
62103;BME280;48077;48.104;11.702;2023-05-20T12:10:58;95204.88;;;24.33;44.49
62103;BME280;48077;48.104;11.702;2023-05-20T12:13:21;95222.78;;;24.42;42.84
62103;BME280;48077;48.104;11.702;2023-05-20T12:15:48;95218.38;;;24.20;42.02
62103;BME280;48077;48.104;11.702;2023-05-20T12:18:11;95222.72;;;24.21;42.45
62103;BME280;48077;48.104;11.702;2023-05-20T12:20:35;95216.66;;;24.07;41.97
62103;BME280;48077;48.104;11.702;2023-05-20T12:23:01;95204.16;;;24.15;41.09
62103;BME280;48077;48.104;11.702;2023-05-20T12:25:28;95192.16;;;24.07;40.23
62103;BME280;48077;48.104;11.702;2023-05-20T12:27:57;95122.81;;;23.22;41.73
62103;BME280;48077;48.104;11.702;2023-05-20T12:30:26;95181.53;;;23.41;42.00
62103;BME280;48077;48.104;11.702;2023-05-20T12:32:53;95114.69;;;22.88;41.86
62103;BME280;48077;48.104;11.702;2023-05-20T12:35:38;95180.75;;;23.14;43.16
62103;BME280;48077;48.104;11.702;2023-05-20T12:38:01;95225.72;;;23.03;43.70
62103;BME280;48077;48.104;11.702;2023-05-20T12:40:27;95206.66;;;22.94;43.49
62103;BME280;48077;48.104;11.702;2023-05-20T12:42:51;95221.09;;;23.38;42.62